sensor_id;sensor_type;location;lat;lon;timestamp;P1;durP1;ratioP1;P2;durP2;ratioP2
2884;SDS011;54691;48.262;11.586;2022-09-03T00:10:41;1.87;;;1.07;;
2884;SDS011;54691;48.262;11.586;2022-09-03T00:21:08;1.80;;;1.30;;
2884;SDS011;54691;48.262;11.586;2022-09-03T00:28:06;2.22;;;1.00;;
2884;SDS011;54691;48.262;11.586;2022-09-03T00:35:05;3.17;;;1.07;;
2884;SDS011;54691;48.262;11.586;2022-09-03T00:46:37;1.65;;;0.80;;
2884;SDS011;54691;48.262;11.586;2022-09-03T00:52:53;2.20;;;1.10;;
2884;SDS011;54691;48.262;11.586;2022-09-03T00:59:56;2.25;;;1.02;;
2884;SDS011;54691;48.262;11.586;2022-09-03T01:14:05;2.60;;;1.20;;
2884;SDS011;54691;48.262;11.586;2022-09-03T01:28:31;3.60;;;1.30;;
2884;SDS011;54691;48.262;11.586;2022-09-03T01:32:00;1.75;;;1.05;;
2884;SDS011;54691;48.262;11.586;2022-09-03T01:38:59;3.37;;;0.90;;
2884;SDS011;54691;48.262;11.586;2022-09-03T01:45:55;3.17;;;1.20;;
2884;SDS011;54691;48.262;11.586;2022-09-03T02:03:36;2.10;;;1.02;;
2884;SDS011;54691;48.262;11.586;2022-09-03T02:10:38;3.77;;;1.30;;
2884;SDS011;54691;48.262;11.586;2022-09-03T02:17:35;2.60;;;1.10;;
2884;SDS011;54691;48.262;11.586;2022-09-03T02:24:32;4.00;;;1.27;;
2884;SDS011;54691;48.262;11.586;2022-09-03T02:31:29;4.65;;;1.12;;
2884;SDS011;54691;48.262;11.586;2022-09-03T02:38:26;4.90;;;1.50;;
2884;SDS011;54691;48.262;11.586;2022-09-03T02:45:26;5.90;;;1.40;;
2884;SDS011;54691;48.262;11.586;2022-09-03T02:52:22;3.98;;;1.27;;
2884;SDS011;54691;48.262;11.586;2022-09-03T02:59:19;2.10;;;1.50;;
2884;SDS011;54691;48.262;11.586;2022-09-03T03:06:18;3.30;;;1.70;;
2884;SDS011;54691;48.262;11.586;2022-09-03T03:13:18;2.40;;;1.60;;
2884;SDS011;54691;48.262;11.586;2022-09-03T03:20:15;5.25;;;2.40;;
2884;SDS011;54691;48.262;11.586;2022-09-03T03:27:12;3.17;;;1.37;;
2884;SDS011;54691;48.262;11.586;2022-09-03T03:34:09;6.92;;;2.05;;
2884;SDS011;54691;48.262;11.586;2022-09-03T03:41:17;3.02;;;1.77;;
2884;SDS011;54691;48.262;11.586;2022-09-03T03:48:05;3.40;;;1.72;;
2884;SDS011;54691;48.262;11.586;2022-09-03T03:55:02;6.12;;;1.70;;
2884;SDS011;54691;48.262;11.586;2022-09-03T04:01:59;2.75;;;1.70;;
2884;SDS011;54691;48.262;11.586;2022-09-03T04:08:56;12.75;;;1.92;;
2884;SDS011;54691;48.262;11.586;2022-09-03T04:15:58;5.22;;;2.10;;
2884;SDS011;54691;48.262;11.586;2022-09-03T04:22:52;4.53;;;1.72;;
2884;SDS011;54691;48.262;11.586;2022-09-03T04:29:49;2.80;;;1.67;;
2884;SDS011;54691;48.262;11.586;2022-09-03T04:36:46;3.65;;;1.92;;
2884;SDS011;54691;48.262;11.586;2022-09-03T04:43:43;4.08;;;2.00;;
2884;SDS011;54691;48.262;11.586;2022-09-03T04:50:41;2.27;;;1.60;;
2884;SDS011;54691;48.262;11.586;2022-09-03T04:57:38;3.33;;;1.80;;
2884;SDS011;54691;48.262;11.586;2022-09-03T05:04:37;2.17;;;1.70;;
2884;SDS011;54691;48.262;11.586;2022-09-03T05:11:34;1.87;;;1.40;;
2884;SDS011;54691;48.262;11.586;2022-09-03T05:18:32;6.17;;;2.08;;
2884;SDS011;54691;48.262;11.586;2022-09-03T05:25:30;2.30;;;1.45;;
2884;SDS011;54691;48.262;11.586;2022-09-03T05:32:29;3.47;;;1.57;;
2884;SDS011;54691;48.262;11.586;2022-09-03T05:39:26;6.67;;;2.02;;
2884;SDS011;54691;48.262;11.586;2022-09-03T05:46:25;2.27;;;1.92;;
2884;SDS011;54691;48.262;11.586;2022-09-03T05:53:24;2.55;;;1.52;;
2884;SDS011;54691;48.262;11.586;2022-09-03T06:00:21;3.77;;;1.60;;
2884;SDS011;54691;48.262;11.586;2022-09-03T06:07:18;1.75;;;1.25;;
2884;SDS011;54691;48.262;11.586;2022-09-03T06:14:16;4.83;;;1.57;;
2884;SDS011;54691;48.262;11.586;2022-09-03T06:21:17;1.07;;;0.98;;
2884;SDS011;54691;48.262;11.586;2022-09-03T06:28:14;3.10;;;1.77;;
2884;SDS011;54691;48.262;11.586;2022-09-03T06:35:11;3.12;;;1.55;;
2884;SDS011;54691;48.262;11.586;2022-09-03T06:42:08;2.65;;;1.67;;
2884;SDS011;54691;48.262;11.586;2022-09-03T06:49:05;2.45;;;1.50;;
2884;SDS011;54691;48.262;11.586;2022-09-03T06:56:12;5.03;;;1.75;;
2884;SDS011;54691;48.262;11.586;2022-09-03T07:03:05;2.92;;;1.40;;
2884;SDS011;54691;48.262;11.586;2022-09-03T07:10:24;2.77;;;1.55;;
2884;SDS011;54691;48.262;11.586;2022-09-03T07:17:22;1.45;;;1.27;;
2884;SDS011;54691;48.262;11.586;2022-09-03T07:24:19;2.22;;;1.40;;
2884;SDS011;54691;48.262;11.586;2022-09-03T07:31:18;3.00;;;1.30;;
2884;SDS011;54691;48.262;11.586;2022-09-03T07:38:18;15.93;;;1.87;;
2884;SDS011;54691;48.262;11.586;2022-09-03T07:45:17;6.40;;;1.62;;
2884;SDS011;54691;48.262;11.586;2022-09-03T07:52:15;5.28;;;1.70;;
2884;SDS011;54691;48.262;11.586;2022-09-03T07:59:13;3.15;;;1.67;;
2884;SDS011;54691;48.262;11.586;2022-09-03T08:06:10;2.58;;;1.60;;
2884;SDS011;54691;48.262;11.586;2022-09-03T08:13:08;1.50;;;1.37;;
2884;SDS011;54691;48.262;11.586;2022-09-03T08:20:05;1.52;;;1.22;;
2884;SDS011;54691;48.262;11.586;2022-09-03T08:27:03;3.08;;;1.67;;
2884;SDS011;54691;48.262;11.586;2022-09-03T08:34:02;2.83;;;1.60;;
2884;SDS011;54691;48.262;11.586;2022-09-03T08:41:10;1.57;;;1.00;;
2884;SDS011;54691;48.262;11.586;2022-09-03T08:44:42;3.50;;;1.30;;
2884;SDS011;54691;48.262;11.586;2022-09-03T08:58:57;3.33;;;1.50;;
2884;SDS011;54691;48.262;11.586;2022-09-03T09:05:59;3.22;;;1.55;;
2884;SDS011;54691;48.262;11.586;2022-09-03T09:13:08;3.75;;;1.70;;
2884;SDS011;54691;48.262;11.586;2022-09-03T09:16:44;5.58;;;1.70;;
2884;SDS011;54691;48.262;11.586;2022-09-03T09:23:48;1.65;;;1.10;;
2884;SDS011;54691;48.262;11.586;2022-09-03T09:27:17;1.95;;;1.35;;
2884;SDS011;54691;48.262;11.586;2022-09-03T09:34:15;3.30;;;1.60;;
2884;SDS011;54691;48.262;11.586;2022-09-03T09:41:20;2.15;;;1.55;;
2884;SDS011;54691;48.262;11.586;2022-09-03T09:51:43;2.45;;;1.55;;
2884;SDS011;54691;48.262;11.586;2022-09-03T09:58:41;2.45;;;1.57;;
2884;SDS011;54691;48.262;11.586;2022-09-03T10:05:38;3.17;;;1.47;;
2884;SDS011;54691;48.262;11.586;2022-09-03T10:12:38;2.98;;;1.35;;
2884;SDS011;54691;48.262;11.586;2022-09-03T10:19:42;2.50;;;1.15;;
2884;SDS011;54691;48.262;11.586;2022-09-03T10:26:35;1.50;;;1.10;;
2884;SDS011;54691;48.262;11.586;2022-09-03T10:33:50;1.95;;;1.00;;
2884;SDS011;54691;48.262;11.586;2022-09-03T10:37:20;1.72;;;1.10;;
2884;SDS011;54691;48.262;11.586;2022-09-03T10:44:20;1.57;;;0.90;;
2884;SDS011;54691;48.262;11.586;2022-09-03T10:51:22;1.25;;;0.90;;
2884;SDS011;54691;48.262;11.586;2022-09-03T10:58:30;2.08;;;1.10;;
2884;SDS011;54691;48.262;11.586;2022-09-03T11:02:17;3.10;;;0.90;;
2884;SDS011;54691;48.262;11.586;2022-09-03T11:05:53;0.70;;;0.60;;
2884;SDS011;54691;48.262;11.586;2022-09-03T11:12:46;1.70;;;0.88;;
2884;SDS011;54691;48.262;11.586;2022-09-03T11:19:45;2.40;;;1.05;;
2884;SDS011;54691;48.262;11.586;2022-09-03T11:30:13;2.87;;;1.27;;
2884;SDS011;54691;48.262;11.586;2022-09-03T11:44:17;1.80;;;0.98;;
2884;SDS011;54691;48.262;11.586;2022-09-03T11:54:51;2.85;;;1.30;;
2884;SDS011;54691;48.262;11.586;2022-09-03T12:12:42;1.55;;;1.20;;
2884;SDS011;54691;48.262;11.586;2022-09-03T12:16:15;1.57;;;1.12;;
2884;SDS011;54691;48.262;11.586;2022-09-03T12:23:10;3.80;;;1.12;;
2884;SDS011;54691;48.262;11.586;2022-09-03T12:30:16;1.40;;;1.10;;
2884;SDS011;54691;48.262;11.586;2022-09-03T12:40:41;2.55;;;1.20;;
2884;SDS011;54691;48.262;11.586;2022-09-03T12:47:38;3.65;;;1.20;;
2884;SDS011;54691;48.262;11.586;2022-09-03T12:54:39;1.50;;;1.02;;
2884;SDS011;54691;48.262;11.586;2022-09-03T13:01:38;3.52;;;1.27;;
2884;SDS011;54691;48.262;11.586;2022-09-03T13:08:37;2.80;;;0.93;;
2884;SDS011;54691;48.262;11.586;2022-09-03T13:15:32;1.20;;;0.90;;
2884;SDS011;54691;48.262;11.586;2022-09-03T13:22:32;1.22;;;1.12;;
2884;SDS011;54691;48.262;11.586;2022-09-03T13:33:26;4.40;;;0.80;;
2884;SDS011;54691;48.262;11.586;2022-09-03T13:36:57;1.17;;;1.00;;
2884;SDS011;54691;48.262;11.586;2022-09-03T13:43:56;3.67;;;1.00;;
2884;SDS011;54691;48.262;11.586;2022-09-03T13:51:06;0.82;;;0.78;;
2884;SDS011;54691;48.262;11.586;2022-09-03T13:58:05;1.67;;;1.00;;
2884;SDS011;54691;48.262;11.586;2022-09-03T14:05:18;1.73;;;1.03;;
2884;SDS011;54691;48.262;11.586;2022-09-03T14:15:56;4.95;;;1.07;;
2884;SDS011;54691;48.262;11.586;2022-09-03T14:22:51;2.10;;;0.93;;
2884;SDS011;54691;48.262;11.586;2022-09-03T14:30:02;2.37;;;1.00;;
2884;SDS011;54691;48.262;11.586;2022-09-03T14:48:35;8.73;;;2.02;;
2884;SDS011;54691;48.262;11.586;2022-09-03T14:56:01;2.95;;;1.37;;
2884;SDS011;54691;48.262;11.586;2022-09-03T15:14:14;3.05;;;1.40;;
2884;SDS011;54691;48.262;11.586;2022-09-03T15:21:40;4.87;;;1.27;;
2884;SDS011;54691;48.262;11.586;2022-09-03T15:35:29;2.12;;;1.37;;
2884;SDS011;54691;48.262;11.586;2022-09-03T15:46:03;7.30;;;2.15;;
2884;SDS011;54691;48.262;11.586;2022-09-03T15:49:42;4.50;;;1.90;;
2884;SDS011;54691;48.262;11.586;2022-09-03T15:56:35;3.80;;;1.90;;
2884;SDS011;54691;48.262;11.586;2022-09-03T16:03:42;3.02;;;1.52;;
2884;SDS011;54691;48.262;11.586;2022-09-03T16:10:36;2.33;;;1.40;;
2884;SDS011;54691;48.262;11.586;2022-09-03T16:17:35;5.65;;;1.15;;
2884;SDS011;54691;48.262;11.586;2022-09-03T16:24:40;1.75;;;0.88;;
2884;SDS011;54691;48.262;11.586;2022-09-03T16:38:48;1.87;;;0.62;;
2884;SDS011;54691;48.262;11.586;2022-09-03T16:46:09;1.77;;;0.70;;
2884;SDS011;54691;48.262;11.586;2022-09-03T16:49:53;1.45;;;0.80;;
2884;SDS011;54691;48.262;11.586;2022-09-03T16:53:25;4.92;;;0.72;;
2884;SDS011;54691;48.262;11.586;2022-09-03T17:10:52;4.53;;;0.80;;
2884;SDS011;54691;48.262;11.586;2022-09-03T17:18:02;1.52;;;0.80;;
2884;SDS011;54691;48.262;11.586;2022-09-03T17:21:33;1.93;;;1.23;;
2884;SDS011;54691;48.262;11.586;2022-09-03T17:32:22;4.70;;;1.20;;
2884;SDS011;54691;48.262;11.586;2022-09-03T17:35:54;1.70;;;0.95;;
2884;SDS011;54691;48.262;11.586;2022-09-03T17:46:44;2.87;;;1.20;;
2884;SDS011;54691;48.262;11.586;2022-09-03T18:08:11;2.62;;;1.20;;
2884;SDS011;54691;48.262;11.586;2022-09-03T18:11:38;6.28;;;1.62;;
2884;SDS011;54691;48.262;11.586;2022-09-03T18:19:00;5.70;;;1.70;;
2884;SDS011;54691;48.262;11.586;2022-09-03T18:26:01;2.35;;;1.20;;
2884;SDS011;54691;48.262;11.586;2022-09-03T18:30:01;3.37;;;1.27;;
2884;SDS011;54691;48.262;11.586;2022-09-03T18:33:50;2.25;;;1.20;;
2884;SDS011;54691;48.262;11.586;2022-09-03T18:37:36;2.08;;;1.07;;
2884;SDS011;54691;48.262;11.586;2022-09-03T18:53:34;4.08;;;1.40;;
2884;SDS011;54691;48.262;11.586;2022-09-03T18:57:28;2.30;;;1.10;;
2884;SDS011;54691;48.262;11.586;2022-09-03T19:05:17;2.35;;;1.07;;
2884;SDS011;54691;48.262;11.586;2022-09-03T19:09:02;1.20;;;0.90;;
2884;SDS011;54691;48.262;11.586;2022-09-03T19:13:46;1.30;;;1.00;;
2884;SDS011;54691;48.262;11.586;2022-09-03T19:20:30;1.20;;;0.82;;
2884;SDS011;54691;48.262;11.586;2022-09-03T19:24:25;6.30;;;1.27;;
2884;SDS011;54691;48.262;11.586;2022-09-03T19:28:15;2.27;;;1.05;;
2884;SDS011;54691;48.262;11.586;2022-09-03T19:32:09;1.40;;;1.10;;
2884;SDS011;54691;48.262;11.586;2022-09-03T19:36:03;3.37;;;0.98;;
2884;SDS011;54691;48.262;11.586;2022-09-03T19:39:50;1.87;;;1.07;;
2884;SDS011;54691;48.262;11.586;2022-09-03T19:51:43;4.67;;;1.65;;
2884;SDS011;54691;48.262;11.586;2022-09-03T19:55:29;2.20;;;1.05;;
2884;SDS011;54691;48.262;11.586;2022-09-03T19:59:21;1.70;;;1.07;;
2884;SDS011;54691;48.262;11.586;2022-09-03T20:03:03;4.10;;;1.20;;
2884;SDS011;54691;48.262;11.586;2022-09-03T20:06:53;3.50;;;0.88;;
2884;SDS011;54691;48.262;11.586;2022-09-03T20:10:43;3.75;;;1.20;;
2884;SDS011;54691;48.262;11.586;2022-09-03T21:00:03;3.65;;;1.50;;
2884;SDS011;54691;48.262;11.586;2022-09-03T21:07:05;2.80;;;1.32;;
2884;SDS011;54691;48.262;11.586;2022-09-03T21:14:05;2.75;;;1.95;;
2884;SDS011;54691;48.262;11.586;2022-09-03T21:25:04;3.53;;;1.50;;
2884;SDS011;54691;48.262;11.586;2022-09-03T21:43:21;4.65;;;1.65;;
2884;SDS011;54691;48.262;11.586;2022-09-03T22:01:21;4.30;;;2.20;;
2884;SDS011;54691;48.262;11.586;2022-09-03T22:05:06;4.95;;;2.30;;
2884;SDS011;54691;48.262;11.586;2022-09-03T22:15:49;4.35;;;2.25;;
2884;SDS011;54691;48.262;11.586;2022-09-03T22:30:20;4.70;;;1.52;;
2884;SDS011;54691;48.262;11.586;2022-09-03T22:44:38;5.03;;;1.95;;
2884;SDS011;54691;48.262;11.586;2022-09-03T22:55:19;4.72;;;1.75;;
2884;SDS011;54691;48.262;11.586;2022-09-03T22:59:01;4.90;;;1.80;;
2884;SDS011;54691;48.262;11.586;2022-09-03T23:06:10;3.50;;;1.90;;
2884;SDS011;54691;48.262;11.586;2022-09-03T23:20:15;4.97;;;2.22;;
2884;SDS011;54691;48.262;11.586;2022-09-03T23:23:54;10.80;;;2.22;;
2884;SDS011;54691;48.262;11.586;2022-09-03T23:30:52;9.45;;;1.60;;
2884;SDS011;54691;48.262;11.586;2022-09-03T23:41:39;4.50;;;1.80;;
